sensor_id;sensor_type;location;lat;lon;timestamp;P1;durP1;ratioP1;P2;durP2;ratioP2
4674;SDS011;2351;50.812;12.872;2023-09-12T00:00:50;14.97;;;9.57;;
4674;SDS011;2351;50.812;12.872;2023-09-12T00:03:22;15.43;;;10.57;;
4674;SDS011;2351;50.812;12.872;2023-09-12T00:05:55;10.90;;;9.03;;
4674;SDS011;2351;50.812;12.872;2023-09-12T00:08:29;24.47;;;10.50;;
4674;SDS011;2351;50.812;12.872;2023-09-12T00:11:01;14.80;;;10.00;;
4674;SDS011;2351;50.812;12.872;2023-09-12T00:13:34;17.13;;;11.00;;
4674;SDS011;2351;50.812;12.872;2023-09-12T00:16:05;20.23;;;9.90;;
4674;SDS011;2351;50.812;12.872;2023-09-12T00:18:39;10.93;;;9.60;;
4674;SDS011;2351;50.812;12.872;2023-09-12T00:21:12;16.50;;;10.40;;
4674;SDS011;2351;50.812;12.872;2023-09-12T00:23:45;19.33;;;10.73;;
4674;SDS011;2351;50.812;12.872;2023-09-12T00:26:17;13.80;;;9.93;;
4674;SDS011;2351;50.812;12.872;2023-09-12T00:28:49;18.47;;;11.40;;
4674;SDS011;2351;50.812;12.872;2023-09-12T00:31:20;14.30;;;10.30;;
4674;SDS011;2351;50.812;12.872;2023-09-12T00:33:52;14.47;;;10.90;;
4674;SDS011;2351;50.812;12.872;2023-09-12T00:36:24;13.90;;;9.67;;
4674;SDS011;2351;50.812;12.872;2023-09-12T00:38:57;13.13;;;10.33;;
4674;SDS011;2351;50.812;12.872;2023-09-12T00:41:28;19.83;;;10.70;;
4674;SDS011;2351;50.812;12.872;2023-09-12T00:44:00;16.47;;;10.17;;
4674;SDS011;2351;50.812;12.872;2023-09-12T00:46:32;15.50;;;9.80;;
4674;SDS011;2351;50.812;12.872;2023-09-12T00:49:05;16.90;;;10.57;;
4674;SDS011;2351;50.812;12.872;2023-09-12T00:51:39;10.53;;;9.30;;
4674;SDS011;2351;50.812;12.872;2023-09-12T00:54:13;12.17;;;9.80;;
4674;SDS011;2351;50.812;12.872;2023-09-12T00:56:45;19.57;;;10.60;;
4674;SDS011;2351;50.812;12.872;2023-09-12T00:59:17;26.03;;;10.17;;
4674;SDS011;2351;50.812;12.872;2023-09-12T01:01:50;17.00;;;10.60;;
4674;SDS011;2351;50.812;12.872;2023-09-12T01:04:22;13.77;;;9.90;;
4674;SDS011;2351;50.812;12.872;2023-09-12T01:06:54;10.83;;;9.50;;
4674;SDS011;2351;50.812;12.872;2023-09-12T01:09:27;13.87;;;10.40;;
4674;SDS011;2351;50.812;12.872;2023-09-12T01:11:59;14.90;;;10.33;;
4674;SDS011;2351;50.812;12.872;2023-09-12T01:14:32;15.00;;;11.10;;
4674;SDS011;2351;50.812;12.872;2023-09-12T01:17:04;18.20;;;10.47;;
4674;SDS011;2351;50.812;12.872;2023-09-12T01:19:36;17.50;;;10.17;;
4674;SDS011;2351;50.812;12.872;2023-09-12T01:22:15;14.80;;;10.83;;
4674;SDS011;2351;50.812;12.872;2023-09-12T01:25:07;12.30;;;9.83;;
4674;SDS011;2351;50.812;12.872;2023-09-12T01:27:46;19.20;;;11.37;;
4674;SDS011;2351;50.812;12.872;2023-09-12T01:30:21;17.50;;;11.03;;
4674;SDS011;2351;50.812;12.872;2023-09-12T01:32:53;12.80;;;9.43;;
4674;SDS011;2351;50.812;12.872;2023-09-12T01:35:26;15.30;;;10.00;;
4674;SDS011;2351;50.812;12.872;2023-09-12T01:37:57;20.73;;;9.57;;
4674;SDS011;2351;50.812;12.872;2023-09-12T01:40:31;20.40;;;10.17;;
4674;SDS011;2351;50.812;12.872;2023-09-12T01:43:10;14.77;;;10.37;;
4674;SDS011;2351;50.812;12.872;2023-09-12T01:45:46;19.63;;;10.37;;
4674;SDS011;2351;50.812;12.872;2023-09-12T01:48:19;23.43;;;10.70;;
4674;SDS011;2351;50.812;12.872;2023-09-12T01:50:53;16.03;;;10.53;;
4674;SDS011;2351;50.812;12.872;2023-09-12T01:53:25;15.43;;;9.87;;
4674;SDS011;2351;50.812;12.872;2023-09-12T01:55:57;16.03;;;10.17;;
4674;SDS011;2351;50.812;12.872;2023-09-12T01:58:31;12.87;;;10.00;;
4674;SDS011;2351;50.812;12.872;2023-09-12T02:01:05;14.90;;;9.90;;
4674;SDS011;2351;50.812;12.872;2023-09-12T02:03:36;13.33;;;10.20;;
4674;SDS011;2351;50.812;12.872;2023-09-12T02:06:08;14.13;;;9.67;;
4674;SDS011;2351;50.812;12.872;2023-09-12T02:08:40;20.20;;;10.63;;
4674;SDS011;2351;50.812;12.872;2023-09-12T02:11:11;14.00;;;9.90;;
4674;SDS011;2351;50.812;12.872;2023-09-12T02:13:44;12.87;;;8.67;;
4674;SDS011;2351;50.812;12.872;2023-09-12T02:16:16;11.50;;;9.20;;
4674;SDS011;2351;50.812;12.872;2023-09-12T02:18:48;14.30;;;9.70;;
4674;SDS011;2351;50.812;12.872;2023-09-12T02:21:19;20.90;;;9.83;;
4674;SDS011;2351;50.812;12.872;2023-09-12T02:23:51;13.63;;;9.27;;
4674;SDS011;2351;50.812;12.872;2023-09-12T02:26:23;14.90;;;9.70;;
4674;SDS011;2351;50.812;12.872;2023-09-12T02:28:56;11.17;;;8.70;;
4674;SDS011;2351;50.812;12.872;2023-09-12T02:31:27;13.43;;;9.37;;
4674;SDS011;2351;50.812;12.872;2023-09-12T02:33:59;16.30;;;9.60;;
4674;SDS011;2351;50.812;12.872;2023-09-12T02:36:31;14.60;;;9.43;;
4674;SDS011;2351;50.812;12.872;2023-09-12T02:39:03;13.30;;;10.37;;
4674;SDS011;2351;50.812;12.872;2023-09-12T02:41:34;14.47;;;9.47;;
4674;SDS011;2351;50.812;12.872;2023-09-12T02:44:07;13.63;;;9.77;;
4674;SDS011;2351;50.812;12.872;2023-09-12T02:46:39;14.50;;;10.00;;
4674;SDS011;2351;50.812;12.872;2023-09-12T02:49:11;13.03;;;9.40;;
4674;SDS011;2351;50.812;12.872;2023-09-12T02:51:43;13.43;;;9.67;;
4674;SDS011;2351;50.812;12.872;2023-09-12T02:54:16;14.90;;;10.67;;
4674;SDS011;2351;50.812;12.872;2023-09-12T02:56:48;11.60;;;8.97;;
4674;SDS011;2351;50.812;12.872;2023-09-12T02:59:21;16.03;;;8.77;;
4674;SDS011;2351;50.812;12.872;2023-09-12T03:01:52;14.23;;;10.37;;
4674;SDS011;2351;50.812;12.872;2023-09-12T03:04:24;14.87;;;10.73;;
4674;SDS011;2351;50.812;12.872;2023-09-12T03:06:58;13.20;;;9.43;;
4674;SDS011;2351;50.812;12.872;2023-09-12T03:09:30;12.03;;;9.67;;
4674;SDS011;2351;50.812;12.872;2023-09-12T03:12:02;13.03;;;10.27;;
4674;SDS011;2351;50.812;12.872;2023-09-12T03:14:35;13.63;;;10.00;;
4674;SDS011;2351;50.812;12.872;2023-09-12T03:17:07;20.83;;;10.80;;
4674;SDS011;2351;50.812;12.872;2023-09-12T03:19:38;20.43;;;10.23;;
4674;SDS011;2351;50.812;12.872;2023-09-12T03:22:10;14.00;;;10.60;;
4674;SDS011;2351;50.812;12.872;2023-09-12T03:24:42;18.23;;;10.67;;
4674;SDS011;2351;50.812;12.872;2023-09-12T03:27:15;13.30;;;10.20;;
4674;SDS011;2351;50.812;12.872;2023-09-12T03:29:48;24.63;;;9.13;;
4674;SDS011;2351;50.812;12.872;2023-09-12T03:32:19;10.83;;;8.00;;
4674;SDS011;2351;50.812;12.872;2023-09-12T03:34:51;14.77;;;9.87;;
4674;SDS011;2351;50.812;12.872;2023-09-12T03:37:23;11.60;;;8.63;;
4674;SDS011;2351;50.812;12.872;2023-09-12T03:39:57;13.77;;;10.37;;
4674;SDS011;2351;50.812;12.872;2023-09-12T03:42:29;14.40;;;9.63;;
4674;SDS011;2351;50.812;12.872;2023-09-12T03:45:02;11.27;;;9.60;;
4674;SDS011;2351;50.812;12.872;2023-09-12T03:47:34;15.60;;;10.33;;
4674;SDS011;2351;50.812;12.872;2023-09-12T03:50:06;15.30;;;10.13;;
4674;SDS011;2351;50.812;12.872;2023-09-12T03:52:38;14.67;;;10.87;;
4674;SDS011;2351;50.812;12.872;2023-09-12T03:55:10;15.50;;;10.43;;
4674;SDS011;2351;50.812;12.872;2023-09-12T03:57:41;27.83;;;10.30;;
4674;SDS011;2351;50.812;12.872;2023-09-12T04:00:15;15.60;;;9.60;;
4674;SDS011;2351;50.812;12.872;2023-09-12T04:02:47;15.57;;;10.60;;
4674;SDS011;2351;50.812;12.872;2023-09-12T04:05:19;14.87;;;10.03;;
4674;SDS011;2351;50.812;12.872;2023-09-12T04:07:50;21.60;;;9.70;;
4674;SDS011;2351;50.812;12.872;2023-09-12T04:10:22;15.00;;;9.77;;
4674;SDS011;2351;50.812;12.872;2023-09-12T04:12:54;15.87;;;9.77;;
4674;SDS011;2351;50.812;12.872;2023-09-12T04:15:27;16.70;;;10.50;;
4674;SDS011;2351;50.812;12.872;2023-09-12T04:17:59;15.40;;;10.67;;
4674;SDS011;2351;50.812;12.872;2023-09-12T04:20:31;13.00;;;9.67;;
4674;SDS011;2351;50.812;12.872;2023-09-12T04:23:02;13.83;;;9.00;;
4674;SDS011;2351;50.812;12.872;2023-09-12T04:25:35;11.93;;;10.13;;
4674;SDS011;2351;50.812;12.872;2023-09-12T04:28:06;18.43;;;10.50;;
4674;SDS011;2351;50.812;12.872;2023-09-12T04:30:39;17.53;;;10.47;;
4674;SDS011;2351;50.812;12.872;2023-09-12T04:33:11;15.33;;;9.77;;
4674;SDS011;2351;50.812;12.872;2023-09-12T04:35:43;15.80;;;9.80;;
4674;SDS011;2351;50.812;12.872;2023-09-12T04:38:15;17.47;;;10.73;;
4674;SDS011;2351;50.812;12.872;2023-09-12T04:40:52;13.43;;;9.20;;
4674;SDS011;2351;50.812;12.872;2023-09-12T04:43:25;12.63;;;9.93;;
4674;SDS011;2351;50.812;12.872;2023-09-12T04:45:58;10.83;;;9.37;;
4674;SDS011;2351;50.812;12.872;2023-09-12T04:48:29;13.30;;;9.90;;
4674;SDS011;2351;50.812;12.872;2023-09-12T04:51:01;13.67;;;10.57;;
4674;SDS011;2351;50.812;12.872;2023-09-12T04:53:33;13.97;;;10.10;;
4674;SDS011;2351;50.812;12.872;2023-09-12T04:56:05;28.30;;;12.20;;
4674;SDS011;2351;50.812;12.872;2023-09-12T04:58:39;23.13;;;10.77;;
4674;SDS011;2351;50.812;12.872;2023-09-12T05:01:13;14.70;;;10.70;;
4674;SDS011;2351;50.812;12.872;2023-09-12T05:03:44;13.43;;;11.03;;
4674;SDS011;2351;50.812;12.872;2023-09-12T05:06:16;17.40;;;10.17;;
4674;SDS011;2351;50.812;12.872;2023-09-12T05:08:48;14.87;;;11.00;;
4674;SDS011;2351;50.812;12.872;2023-09-12T05:11:19;29.30;;;10.77;;
4674;SDS011;2351;50.812;12.872;2023-09-12T05:13:52;23.40;;;12.33;;
4674;SDS011;2351;50.812;12.872;2023-09-12T05:16:25;23.40;;;10.40;;
4674;SDS011;2351;50.812;12.872;2023-09-12T05:18:57;21.50;;;10.90;;
4674;SDS011;2351;50.812;12.872;2023-09-12T05:21:29;13.40;;;10.13;;
4674;SDS011;2351;50.812;12.872;2023-09-12T05:24:01;14.00;;;10.20;;
4674;SDS011;2351;50.812;12.872;2023-09-12T05:26:32;12.20;;;9.70;;
4674;SDS011;2351;50.812;12.872;2023-09-12T05:29:04;18.00;;;11.23;;
4674;SDS011;2351;50.812;12.872;2023-09-12T05:31:38;24.23;;;11.17;;
4674;SDS011;2351;50.812;12.872;2023-09-12T05:34:10;20.33;;;11.57;;
4674;SDS011;2351;50.812;12.872;2023-09-12T05:36:42;13.97;;;10.20;;
4674;SDS011;2351;50.812;12.872;2023-09-12T05:39:14;14.40;;;9.43;;
4674;SDS011;2351;50.812;12.872;2023-09-12T05:41:46;18.00;;;10.80;;
4674;SDS011;2351;50.812;12.872;2023-09-12T05:44:17;25.50;;;12.27;;
4674;SDS011;2351;50.812;12.872;2023-09-12T05:46:51;14.63;;;10.57;;
4674;SDS011;2351;50.812;12.872;2023-09-12T05:49:22;13.33;;;10.93;;
4674;SDS011;2351;50.812;12.872;2023-09-12T05:51:54;19.70;;;10.83;;
4674;SDS011;2351;50.812;12.872;2023-09-12T05:54:26;17.33;;;12.10;;
4674;SDS011;2351;50.812;12.872;2023-09-12T05:56:57;19.00;;;10.50;;
4674;SDS011;2351;50.812;12.872;2023-09-12T05:59:29;19.67;;;11.50;;
4674;SDS011;2351;50.812;12.872;2023-09-12T06:02:02;15.23;;;10.00;;
4674;SDS011;2351;50.812;12.872;2023-09-12T06:04:35;30.73;;;11.30;;
4674;SDS011;2351;50.812;12.872;2023-09-12T06:07:06;12.87;;;10.13;;
4674;SDS011;2351;50.812;12.872;2023-09-12T06:09:38;16.67;;;11.23;;
4674;SDS011;2351;50.812;12.872;2023-09-12T06:12:10;13.50;;;10.70;;
4674;SDS011;2351;50.812;12.872;2023-09-12T06:14:42;20.47;;;10.50;;
4674;SDS011;2351;50.812;12.872;2023-09-12T06:17:15;13.20;;;10.37;;
4674;SDS011;2351;50.812;12.872;2023-09-12T06:19:46;14.90;;;9.67;;
4674;SDS011;2351;50.812;12.872;2023-09-12T06:22:19;16.13;;;10.60;;
4674;SDS011;2351;50.812;12.872;2023-09-12T06:24:53;17.23;;;12.33;;
4674;SDS011;2351;50.812;12.872;2023-09-12T06:27:24;16.13;;;11.50;;
4674;SDS011;2351;50.812;12.872;2023-09-12T06:29:56;12.97;;;10.60;;
4674;SDS011;2351;50.812;12.872;2023-09-12T06:32:29;20.03;;;11.13;;
4674;SDS011;2351;50.812;12.872;2023-09-12T06:35:01;14.07;;;10.60;;
4674;SDS011;2351;50.812;12.872;2023-09-12T06:37:33;16.60;;;9.90;;
4674;SDS011;2351;50.812;12.872;2023-09-12T06:40:05;14.67;;;10.73;;
4674;SDS011;2351;50.812;12.872;2023-09-12T06:42:37;13.43;;;10.00;;
4674;SDS011;2351;50.812;12.872;2023-09-12T06:45:09;17.67;;;10.30;;
4674;SDS011;2351;50.812;12.872;2023-09-12T06:47:43;20.10;;;10.27;;
4674;SDS011;2351;50.812;12.872;2023-09-12T06:50:14;15.33;;;9.73;;
4674;SDS011;2351;50.812;12.872;2023-09-12T06:52:46;15.63;;;9.73;;
4674;SDS011;2351;50.812;12.872;2023-09-12T06:55:18;19.07;;;9.80;;
4674;SDS011;2351;50.812;12.872;2023-09-12T06:57:49;29.73;;;10.70;;
4674;SDS011;2351;50.812;12.872;2023-09-12T07:00:21;25.87;;;10.63;;
4674;SDS011;2351;50.812;12.872;2023-09-12T07:02:55;26.23;;;10.50;;
4674;SDS011;2351;50.812;12.872;2023-09-12T07:05:27;18.40;;;9.20;;
4674;SDS011;2351;50.812;12.872;2023-09-12T07:07:59;16.73;;;9.80;;
4674;SDS011;2351;50.812;12.872;2023-09-12T07:10:30;19.87;;;10.20;;
4674;SDS011;2351;50.812;12.872;2023-09-12T07:13:02;13.50;;;8.40;;
4674;SDS011;2351;50.812;12.872;2023-09-12T07:15:35;19.10;;;8.97;;
4674;SDS011;2351;50.812;12.872;2023-09-12T07:18:08;16.57;;;8.60;;
4674;SDS011;2351;50.812;12.872;2023-09-12T07:20:40;14.03;;;8.30;;
4674;SDS011;2351;50.812;12.872;2023-09-12T07:23:12;21.13;;;10.07;;
4674;SDS011;2351;50.812;12.872;2023-09-12T07:25:43;18.80;;;7.83;;
4674;SDS011;2351;50.812;12.872;2023-09-12T07:28:15;15.33;;;8.63;;
4674;SDS011;2351;50.812;12.872;2023-09-12T07:30:48;31.87;;;8.20;;
4674;SDS011;2351;50.812;12.872;2023-09-12T07:33:22;19.50;;;7.93;;
4674;SDS011;2351;50.812;12.872;2023-09-12T07:35:54;20.60;;;8.70;;
4674;SDS011;2351;50.812;12.872;2023-09-12T07:38:25;18.37;;;7.70;;
4674;SDS011;2351;50.812;12.872;2023-09-12T07:40:57;16.20;;;8.50;;
4674;SDS011;2351;50.812;12.872;2023-09-12T07:43:30;12.90;;;7.80;;
4674;SDS011;2351;50.812;12.872;2023-09-12T07:46:02;16.87;;;8.20;;
4674;SDS011;2351;50.812;12.872;2023-09-12T07:48:35;14.77;;;7.97;;
4674;SDS011;2351;50.812;12.872;2023-09-12T07:51:13;13.53;;;7.33;;
4674;SDS011;2351;50.812;12.872;2023-09-12T07:53:47;9.70;;;7.10;;
4674;SDS011;2351;50.812;12.872;2023-09-12T07:56:19;19.77;;;7.70;;
4674;SDS011;2351;50.812;12.872;2023-09-12T07:58:51;12.33;;;6.90;;
4674;SDS011;2351;50.812;12.872;2023-09-12T08:01:22;12.97;;;7.47;;
4674;SDS011;2351;50.812;12.872;2023-09-12T08:03:55;12.23;;;6.97;;
4674;SDS011;2351;50.812;12.872;2023-09-12T08:06:27;13.93;;;6.77;;
4674;SDS011;2351;50.812;12.872;2023-09-12T08:09:00;12.93;;;7.67;;
4674;SDS011;2351;50.812;12.872;2023-09-12T08:11:32;23.07;;;7.40;;
4674;SDS011;2351;50.812;12.872;2023-09-12T08:14:04;29.93;;;7.83;;
4674;SDS011;2351;50.812;12.872;2023-09-12T08:16:35;18.83;;;6.67;;
4674;SDS011;2351;50.812;12.872;2023-09-12T08:19:10;14.53;;;6.93;;
4674;SDS011;2351;50.812;12.872;2023-09-12T08:21:41;12.53;;;8.33;;
4674;SDS011;2351;50.812;12.872;2023-09-12T08:24:13;23.83;;;7.03;;
4674;SDS011;2351;50.812;12.872;2023-09-12T08:26:45;10.47;;;6.40;;
4674;SDS011;2351;50.812;12.872;2023-09-12T08:29:17;15.00;;;6.30;;
4674;SDS011;2351;50.812;12.872;2023-09-12T08:31:48;22.90;;;6.80;;
4674;SDS011;2351;50.812;12.872;2023-09-12T08:34:21;13.30;;;6.97;;
4674;SDS011;2351;50.812;12.872;2023-09-12T08:36:53;17.13;;;6.53;;
4674;SDS011;2351;50.812;12.872;2023-09-12T08:39:26;15.73;;;6.37;;
4674;SDS011;2351;50.812;12.872;2023-09-12T08:41:59;12.47;;;5.90;;
4674;SDS011;2351;50.812;12.872;2023-09-12T08:44:31;16.00;;;6.60;;
4674;SDS011;2351;50.812;12.872;2023-09-12T08:47:03;17.10;;;6.40;;
4674;SDS011;2351;50.812;12.872;2023-09-12T08:49:37;10.93;;;6.63;;
4674;SDS011;2351;50.812;12.872;2023-09-12T08:52:09;9.57;;;6.40;;
4674;SDS011;2351;50.812;12.872;2023-09-12T08:54:41;10.50;;;6.00;;
4674;SDS011;2351;50.812;12.872;2023-09-12T08:57:13;21.53;;;5.97;;
4674;SDS011;2351;50.812;12.872;2023-09-12T08:59:46;12.80;;;5.03;;
4674;SDS011;2351;50.812;12.872;2023-09-12T09:02:18;9.03;;;5.37;;
4674;SDS011;2351;50.812;12.872;2023-09-12T09:04:51;14.00;;;6.60;;
4674;SDS011;2351;50.812;12.872;2023-09-12T09:07:25;13.43;;;5.87;;
4674;SDS011;2351;50.812;12.872;2023-09-12T09:09:58;16.47;;;5.80;;
4674;SDS011;2351;50.812;12.872;2023-09-12T09:12:33;17.20;;;6.37;;
4674;SDS011;2351;50.812;12.872;2023-09-12T09:15:21;28.63;;;6.30;;
4674;SDS011;2351;50.812;12.872;2023-09-12T09:17:56;13.57;;;5.20;;
4674;SDS011;2351;50.812;12.872;2023-09-12T09:20:33;13.73;;;5.03;;
4674;SDS011;2351;50.812;12.872;2023-09-12T09:23:09;17.17;;;5.93;;
4674;SDS011;2351;50.812;12.872;2023-09-12T09:25:42;19.60;;;6.07;;
4674;SDS011;2351;50.812;12.872;2023-09-12T09:28:22;24.73;;;4.60;;
4674;SDS011;2351;50.812;12.872;2023-09-12T09:30:55;18.17;;;5.90;;
4674;SDS011;2351;50.812;12.872;2023-09-12T09:33:26;21.17;;;5.67;;
4674;SDS011;2351;50.812;12.872;2023-09-12T09:36:03;25.00;;;6.00;;
4674;SDS011;2351;50.812;12.872;2023-09-12T09:38:36;21.97;;;5.60;;
4674;SDS011;2351;50.812;12.872;2023-09-12T09:41:07;18.93;;;5.87;;
4674;SDS011;2351;50.812;12.872;2023-09-12T09:43:40;12.97;;;4.70;;
4674;SDS011;2351;50.812;12.872;2023-09-12T09:46:14;13.03;;;5.37;;
4674;SDS011;2351;50.812;12.872;2023-09-12T09:48:48;20.97;;;6.10;;
4674;SDS011;2351;50.812;12.872;2023-09-12T09:51:22;11.07;;;5.07;;
4674;SDS011;2351;50.812;12.872;2023-09-12T09:53:53;17.60;;;5.40;;
4674;SDS011;2351;50.812;12.872;2023-09-12T09:56:28;15.10;;;5.63;;
4674;SDS011;2351;50.812;12.872;2023-09-12T09:59:00;18.17;;;5.00;;
4674;SDS011;2351;50.812;12.872;2023-09-12T10:01:33;22.57;;;5.30;;
4674;SDS011;2351;50.812;12.872;2023-09-12T10:04:07;15.63;;;4.73;;
4674;SDS011;2351;50.812;12.872;2023-09-12T10:06:42;19.63;;;5.10;;
4674;SDS011;2351;50.812;12.872;2023-09-12T10:09:15;21.67;;;5.20;;
4674;SDS011;2351;50.812;12.872;2023-09-12T10:11:48;14.40;;;5.40;;
4674;SDS011;2351;50.812;12.872;2023-09-12T10:14:22;22.07;;;5.80;;
4674;SDS011;2351;50.812;12.872;2023-09-12T10:16:57;18.47;;;5.43;;
4674;SDS011;2351;50.812;12.872;2023-09-12T10:19:35;26.13;;;5.43;;
4674;SDS011;2351;50.812;12.872;2023-09-12T10:22:12;15.60;;;5.60;;
4674;SDS011;2351;50.812;12.872;2023-09-12T10:24:49;19.23;;;5.90;;
4674;SDS011;2351;50.812;12.872;2023-09-12T10:27:21;15.90;;;5.87;;
4674;SDS011;2351;50.812;12.872;2023-09-12T10:29:55;18.23;;;6.27;;
4674;SDS011;2351;50.812;12.872;2023-09-12T10:32:30;11.63;;;5.70;;
4674;SDS011;2351;50.812;12.872;2023-09-12T10:35:03;11.30;;;6.33;;
4674;SDS011;2351;50.812;12.872;2023-09-12T10:37:40;15.33;;;6.17;;
4674;SDS011;2351;50.812;12.872;2023-09-12T10:40:16;11.63;;;5.23;;
4674;SDS011;2351;50.812;12.872;2023-09-12T10:42:49;14.13;;;6.40;;
4674;SDS011;2351;50.812;12.872;2023-09-12T10:45:22;23.83;;;7.10;;
4674;SDS011;2351;50.812;12.872;2023-09-12T10:47:54;20.30;;;7.20;;
4674;SDS011;2351;50.812;12.872;2023-09-12T10:50:26;22.13;;;6.07;;
4674;SDS011;2351;50.812;12.872;2023-09-12T10:53:09;22.93;;;6.50;;
4674;SDS011;2351;50.812;12.872;2023-09-12T10:55:42;13.67;;;6.70;;
4674;SDS011;2351;50.812;12.872;2023-09-12T10:58:28;12.43;;;5.83;;
4674;SDS011;2351;50.812;12.872;2023-09-12T11:03:55;7.67;;;5.67;;
4674;SDS011;2351;50.812;12.872;2023-09-12T11:06:28;22.77;;;6.23;;
4674;SDS011;2351;50.812;12.872;2023-09-12T11:09:17;14.03;;;5.90;;
4674;SDS011;2351;50.812;12.872;2023-09-12T11:11:54;21.20;;;6.50;;
4674;SDS011;2351;50.812;12.872;2023-09-12T11:14:27;15.80;;;5.73;;
4674;SDS011;2351;50.812;12.872;2023-09-12T11:19:53;22.83;;;6.30;;
4674;SDS011;2351;50.812;12.872;2023-09-12T11:22:40;9.23;;;5.40;;
4674;SDS011;2351;50.812;12.872;2023-09-12T11:25:18;10.40;;;4.90;;
4674;SDS011;2351;50.812;12.872;2023-09-12T11:28:02;11.60;;;5.67;;
4674;SDS011;2351;50.812;12.872;2023-09-12T11:30:35;25.43;;;7.30;;
4674;SDS011;2351;50.812;12.872;2023-09-12T11:33:08;15.80;;;5.50;;
4674;SDS011;2351;50.812;12.872;2023-09-12T11:35:41;9.83;;;5.27;;
4674;SDS011;2351;50.812;12.872;2023-09-12T11:38:14;17.73;;;6.17;;
4674;SDS011;2351;50.812;12.872;2023-09-12T11:40:59;12.60;;;6.50;;
4674;SDS011;2351;50.812;12.872;2023-09-12T11:43:31;7.60;;;5.20;;
4674;SDS011;2351;50.812;12.872;2023-09-12T11:46:03;23.37;;;6.70;;
4674;SDS011;2351;50.812;12.872;2023-09-12T11:48:35;13.70;;;6.13;;
4674;SDS011;2351;50.812;12.872;2023-09-12T11:51:09;12.07;;;6.20;;
4674;SDS011;2351;50.812;12.872;2023-09-12T11:53:40;12.70;;;5.40;;
4674;SDS011;2351;50.812;12.872;2023-09-12T11:56:13;12.37;;;5.90;;
4674;SDS011;2351;50.812;12.872;2023-09-12T11:58:45;23.37;;;6.20;;
4674;SDS011;2351;50.812;12.872;2023-09-12T12:01:17;14.93;;;6.20;;
4674;SDS011;2351;50.812;12.872;2023-09-12T12:03:49;11.03;;;5.60;;
4674;SDS011;2351;50.812;12.872;2023-09-12T12:06:23;15.43;;;5.77;;
4674;SDS011;2351;50.812;12.872;2023-09-12T12:08:54;12.63;;;5.83;;
4674;SDS011;2351;50.812;12.872;2023-09-12T12:11:28;15.57;;;5.77;;
4674;SDS011;2351;50.812;12.872;2023-09-12T12:14:08;21.23;;;6.10;;
4674;SDS011;2351;50.812;12.872;2023-09-12T12:16:42;7.20;;;5.07;;
4674;SDS011;2351;50.812;12.872;2023-09-12T12:19:14;19.93;;;5.83;;
4674;SDS011;2351;50.812;12.872;2023-09-12T12:21:46;12.47;;;5.83;;
4674;SDS011;2351;50.812;12.872;2023-09-12T12:24:17;9.40;;;5.90;;
4674;SDS011;2351;50.812;12.872;2023-09-12T12:26:50;18.00;;;5.40;;
4674;SDS011;2351;50.812;12.872;2023-09-12T12:29:23;15.93;;;5.70;;
4674;SDS011;2351;50.812;12.872;2023-09-12T12:31:59;18.50;;;5.60;;
4674;SDS011;2351;50.812;12.872;2023-09-12T12:34:31;15.60;;;6.10;;
4674;SDS011;2351;50.812;12.872;2023-09-12T12:37:03;9.37;;;5.10;;
4674;SDS011;2351;50.812;12.872;2023-09-12T12:39:35;12.57;;;6.00;;
4674;SDS011;2351;50.812;12.872;2023-09-12T12:42:08;12.93;;;5.50;;
4674;SDS011;2351;50.812;12.872;2023-09-12T12:44:40;14.73;;;5.77;;
4674;SDS011;2351;50.812;12.872;2023-09-12T12:47:12;16.13;;;5.70;;
4674;SDS011;2351;50.812;12.872;2023-09-12T12:49:44;8.83;;;5.17;;
4674;SDS011;2351;50.812;12.872;2023-09-12T12:52:16;9.67;;;5.60;;
4674;SDS011;2351;50.812;12.872;2023-09-12T12:54:47;11.57;;;6.03;;
4674;SDS011;2351;50.812;12.872;2023-09-12T12:57:21;11.53;;;5.83;;
4674;SDS011;2351;50.812;12.872;2023-09-12T12:59:52;14.30;;;5.70;;
4674;SDS011;2351;50.812;12.872;2023-09-12T13:02:25;11.37;;;5.50;;
4674;SDS011;2351;50.812;12.872;2023-09-12T13:04:57;15.57;;;6.00;;
4674;SDS011;2351;50.812;12.872;2023-09-12T13:07:28;9.53;;;5.90;;
4674;SDS011;2351;50.812;12.872;2023-09-12T13:10:00;15.90;;;5.80;;
4674;SDS011;2351;50.812;12.872;2023-09-12T13:12:34;15.57;;;5.60;;
4674;SDS011;2351;50.812;12.872;2023-09-12T13:15:06;7.10;;;4.93;;
4674;SDS011;2351;50.812;12.872;2023-09-12T13:17:40;14.07;;;5.60;;
4674;SDS011;2351;50.812;12.872;2023-09-12T13:20:12;15.60;;;6.40;;
4674;SDS011;2351;50.812;12.872;2023-09-12T13:22:43;7.80;;;5.40;;
4674;SDS011;2351;50.812;12.872;2023-09-12T13:25:15;16.20;;;5.63;;
4674;SDS011;2351;50.812;12.872;2023-09-12T13:27:48;11.57;;;5.50;;
4674;SDS011;2351;50.812;12.872;2023-09-12T13:30:20;7.13;;;4.70;;
4674;SDS011;2351;50.812;12.872;2023-09-12T13:32:52;10.03;;;5.23;;
4674;SDS011;2351;50.812;12.872;2023-09-12T13:35:24;8.33;;;5.57;;
4674;SDS011;2351;50.812;12.872;2023-09-12T13:37:56;10.93;;;5.70;;
4674;SDS011;2351;50.812;12.872;2023-09-12T13:40:28;16.30;;;5.90;;
4674;SDS011;2351;50.812;12.872;2023-09-12T13:43:01;13.43;;;6.23;;
4674;SDS011;2351;50.812;12.872;2023-09-12T13:45:33;11.60;;;4.90;;
4674;SDS011;2351;50.812;12.872;2023-09-12T13:48:05;15.40;;;5.50;;
4674;SDS011;2351;50.812;12.872;2023-09-12T13:50:38;10.57;;;5.40;;
4674;SDS011;2351;50.812;12.872;2023-09-12T13:53:09;11.37;;;5.10;;
4674;SDS011;2351;50.812;12.872;2023-09-12T13:55:41;17.53;;;6.40;;
4674;SDS011;2351;50.812;12.872;2023-09-12T13:58:14;12.30;;;5.00;;
4674;SDS011;2351;50.812;12.872;2023-09-12T14:00:46;17.27;;;5.10;;
4674;SDS011;2351;50.812;12.872;2023-09-12T14:03:18;11.30;;;4.57;;
4674;SDS011;2351;50.812;12.872;2023-09-12T14:05:50;11.87;;;5.00;;
4674;SDS011;2351;50.812;12.872;2023-09-12T14:08:22;14.70;;;4.87;;
4674;SDS011;2351;50.812;12.872;2023-09-12T14:10:54;19.33;;;4.83;;
4674;SDS011;2351;50.812;12.872;2023-09-12T14:13:27;17.73;;;5.17;;
4674;SDS011;2351;50.812;12.872;2023-09-12T14:15:58;15.17;;;5.80;;
4674;SDS011;2351;50.812;12.872;2023-09-12T14:18:30;12.93;;;4.70;;
4674;SDS011;2351;50.812;12.872;2023-09-12T14:21:02;10.23;;;5.10;;
4674;SDS011;2351;50.812;12.872;2023-09-12T14:23:34;15.77;;;4.97;;
4674;SDS011;2351;50.812;12.872;2023-09-12T14:26:05;15.17;;;4.63;;
4674;SDS011;2351;50.812;12.872;2023-09-12T14:28:38;11.90;;;4.50;;
4674;SDS011;2351;50.812;12.872;2023-09-12T14:31:10;18.53;;;5.53;;
4674;SDS011;2351;50.812;12.872;2023-09-12T14:33:44;14.80;;;5.10;;
4674;SDS011;2351;50.812;12.872;2023-09-12T14:36:16;9.00;;;4.83;;
4674;SDS011;2351;50.812;12.872;2023-09-12T14:38:47;10.20;;;4.50;;
4674;SDS011;2351;50.812;12.872;2023-09-12T14:41:19;22.50;;;6.00;;
4674;SDS011;2351;50.812;12.872;2023-09-12T14:43:52;14.57;;;4.60;;
4674;SDS011;2351;50.812;12.872;2023-09-12T14:46:24;11.40;;;4.90;;
4674;SDS011;2351;50.812;12.872;2023-09-12T14:48:55;9.03;;;4.10;;
4674;SDS011;2351;50.812;12.872;2023-09-12T14:51:27;8.70;;;4.47;;
4674;SDS011;2351;50.812;12.872;2023-09-12T14:53:59;11.87;;;4.57;;
4674;SDS011;2351;50.812;12.872;2023-09-12T14:56:31;9.83;;;4.60;;
4674;SDS011;2351;50.812;12.872;2023-09-12T14:59:05;8.40;;;4.20;;
4674;SDS011;2351;50.812;12.872;2023-09-12T15:01:37;13.10;;;5.10;;
4674;SDS011;2351;50.812;12.872;2023-09-12T15:04:09;14.73;;;4.60;;
4674;SDS011;2351;50.812;12.872;2023-09-12T15:06:42;12.50;;;4.87;;
4674;SDS011;2351;50.812;12.872;2023-09-12T15:09:13;9.90;;;5.20;;
4674;SDS011;2351;50.812;12.872;2023-09-12T15:11:45;17.03;;;4.87;;
4674;SDS011;2351;50.812;12.872;2023-09-12T15:14:18;21.53;;;5.17;;
4674;SDS011;2351;50.812;12.872;2023-09-12T15:16:50;25.47;;;6.20;;
4674;SDS011;2351;50.812;12.872;2023-09-12T15:19:22;15.97;;;5.40;;
4674;SDS011;2351;50.812;12.872;2023-09-12T15:21:53;18.30;;;5.37;;
4674;SDS011;2351;50.812;12.872;2023-09-12T15:24:25;25.20;;;4.50;;